sensor_id;sensor_type;location;lat;lon;timestamp;temperature;humidity
67598;DHT22;62026;39.230;9.122;2023-04-03T00:00:44;12.90;69.40
67598;DHT22;62026;39.230;9.122;2023-04-03T00:03:10;13.00;69.20
67598;DHT22;62026;39.230;9.122;2023-04-03T00:05:36;13.00;69.10
67598;DHT22;62026;39.230;9.122;2023-04-03T00:08:02;13.00;69.10
67598;DHT22;62026;39.230;9.122;2023-04-03T00:10:30;13.00;69.00
67598;DHT22;62026;39.230;9.122;2023-04-03T00:12:56;13.00;68.80
67598;DHT22;62026;39.230;9.122;2023-04-03T00:15:22;12.90;68.70
67598;DHT22;62026;39.230;9.122;2023-04-03T00:17:48;12.90;68.70
67598;DHT22;62026;39.230;9.122;2023-04-03T00:20:14;12.90;68.70
67598;DHT22;62026;39.230;9.122;2023-04-03T00:22:40;12.90;68.60
67598;DHT22;62026;39.230;9.122;2023-04-03T00:25:06;12.90;68.60
67598;DHT22;62026;39.230;9.122;2023-04-03T00:27:33;12.90;68.40
67598;DHT22;62026;39.230;9.122;2023-04-03T00:30:03;12.90;68.50
67598;DHT22;62026;39.230;9.122;2023-04-03T00:32:29;13.00;68.40
67598;DHT22;62026;39.230;9.122;2023-04-03T00:34:55;12.90;68.30
67598;DHT22;62026;39.230;9.122;2023-04-03T00:37:21;12.90;68.40
67598;DHT22;62026;39.230;9.122;2023-04-03T00:39:47;12.90;68.50
67598;DHT22;62026;39.230;9.122;2023-04-03T00:42:13;12.90;68.60
67598;DHT22;62026;39.230;9.122;2023-04-03T00:47:11;12.90;68.60
67598;DHT22;62026;39.230;9.122;2023-04-03T00:49:38;12.90;68.90
67598;DHT22;62026;39.230;9.122;2023-04-03T00:52:10;12.90;68.80
67598;DHT22;62026;39.230;9.122;2023-04-03T00:54:42;12.90;68.90
67598;DHT22;62026;39.230;9.122;2023-04-03T00:57:11;12.90;68.80
67598;DHT22;62026;39.230;9.122;2023-04-03T00:59:45;12.90;68.80
67598;DHT22;62026;39.230;9.122;2023-04-03T01:02:16;12.90;68.80
67598;DHT22;62026;39.230;9.122;2023-04-03T01:04:43;12.90;68.90
67598;DHT22;62026;39.230;9.122;2023-04-03T01:07:22;12.80;69.00
67598;DHT22;62026;39.230;9.122;2023-04-03T01:09:56;12.80;69.00
67598;DHT22;62026;39.230;9.122;2023-04-03T01:12:30;12.80;69.00
67598;DHT22;62026;39.230;9.122;2023-04-03T01:15:02;12.80;69.10
67598;DHT22;62026;39.230;9.122;2023-04-03T01:17:39;12.80;68.90
67598;DHT22;62026;39.230;9.122;2023-04-03T01:25:53;12.80;68.90
67598;DHT22;62026;39.230;9.122;2023-04-03T01:28:30;12.80;69.10
67598;DHT22;62026;39.230;9.122;2023-04-03T01:33:59;12.80;68.80
67598;DHT22;62026;39.230;9.122;2023-04-03T01:36:28;12.80;68.80
67598;DHT22;62026;39.230;9.122;2023-04-03T01:38:57;12.70;68.90
67598;DHT22;62026;39.230;9.122;2023-04-03T01:41:26;12.70;68.70
67598;DHT22;62026;39.230;9.122;2023-04-03T01:43:57;12.80;68.70
67598;DHT22;62026;39.230;9.122;2023-04-03T01:46:24;12.80;68.70
67598;DHT22;62026;39.230;9.122;2023-04-03T01:48:50;12.70;68.40
67598;DHT22;62026;39.230;9.122;2023-04-03T01:51:16;12.70;68.40
67598;DHT22;62026;39.230;9.122;2023-04-03T01:53:42;12.70;68.20
67598;DHT22;62026;39.230;9.122;2023-04-03T01:56:09;12.70;68.10
67598;DHT22;62026;39.230;9.122;2023-04-03T01:58:35;12.70;68.00
67598;DHT22;62026;39.230;9.122;2023-04-03T02:01:02;12.70;68.20
67598;DHT22;62026;39.230;9.122;2023-04-03T02:03:28;12.70;68.20
67598;DHT22;62026;39.230;9.122;2023-04-03T02:05:55;12.70;67.90
67598;DHT22;62026;39.230;9.122;2023-04-03T02:08:21;12.70;67.90
67598;DHT22;62026;39.230;9.122;2023-04-03T02:10:49;12.70;67.70
67598;DHT22;62026;39.230;9.122;2023-04-03T02:13:17;12.70;67.60
67598;DHT22;62026;39.230;9.122;2023-04-03T02:15:44;12.70;67.70
67598;DHT22;62026;39.230;9.122;2023-04-03T02:18:11;12.70;67.80
67598;DHT22;62026;39.230;9.122;2023-04-03T02:20:37;12.70;67.60
67598;DHT22;62026;39.230;9.122;2023-04-03T02:23:04;12.70;67.80
67598;DHT22;62026;39.230;9.122;2023-04-03T02:25:31;12.70;67.70
67598;DHT22;62026;39.230;9.122;2023-04-03T02:27:58;12.70;67.60
67598;DHT22;62026;39.230;9.122;2023-04-03T02:30:24;12.70;67.50
67598;DHT22;62026;39.230;9.122;2023-04-03T02:32:51;12.70;67.70
67598;DHT22;62026;39.230;9.122;2023-04-03T02:35:17;12.70;67.70
67598;DHT22;62026;39.230;9.122;2023-04-03T02:37:43;12.60;67.80
67598;DHT22;62026;39.230;9.122;2023-04-03T02:40:09;12.70;67.60
67598;DHT22;62026;39.230;9.122;2023-04-03T02:42:37;12.70;67.60
67598;DHT22;62026;39.230;9.122;2023-04-03T02:45:05;12.70;67.60
67598;DHT22;62026;39.230;9.122;2023-04-03T02:47:32;12.70;67.50
67598;DHT22;62026;39.230;9.122;2023-04-03T02:49:58;12.70;67.40
67598;DHT22;62026;39.230;9.122;2023-04-03T02:52:24;12.60;67.50
67598;DHT22;62026;39.230;9.122;2023-04-03T02:54:52;12.60;67.50
67598;DHT22;62026;39.230;9.122;2023-04-03T02:57:18;12.60;67.50
67598;DHT22;62026;39.230;9.122;2023-04-03T02:59:45;12.60;67.60
67598;DHT22;62026;39.230;9.122;2023-04-03T03:02:12;12.50;67.70
67598;DHT22;62026;39.230;9.122;2023-04-03T03:04:38;12.50;67.90
67598;DHT22;62026;39.230;9.122;2023-04-03T03:07:04;12.50;67.90
67598;DHT22;62026;39.230;9.122;2023-04-03T03:09:31;12.50;68.00
67598;DHT22;62026;39.230;9.122;2023-04-03T03:11:58;12.50;68.10
67598;DHT22;62026;39.230;9.122;2023-04-03T03:14:24;12.40;68.20
67598;DHT22;62026;39.230;9.122;2023-04-03T03:16:50;12.40;68.20
67598;DHT22;62026;39.230;9.122;2023-04-03T03:19:16;12.50;68.30
67598;DHT22;62026;39.230;9.122;2023-04-03T03:21:42;12.40;68.40
67598;DHT22;62026;39.230;9.122;2023-04-03T03:24:08;12.40;68.40
67598;DHT22;62026;39.230;9.122;2023-04-03T03:26:34;12.40;68.60
67598;DHT22;62026;39.230;9.122;2023-04-03T03:29:01;12.40;68.60
67598;DHT22;62026;39.230;9.122;2023-04-03T03:31:28;12.40;68.60
67598;DHT22;62026;39.230;9.122;2023-04-03T03:33:54;12.40;68.60
67598;DHT22;62026;39.230;9.122;2023-04-03T03:36:21;12.40;68.70
67598;DHT22;62026;39.230;9.122;2023-04-03T03:38:47;12.40;68.70
67598;DHT22;62026;39.230;9.122;2023-04-03T03:41:13;12.40;69.00
67598;DHT22;62026;39.230;9.122;2023-04-03T03:43:41;12.40;69.00
67598;DHT22;62026;39.230;9.122;2023-04-03T03:46:07;12.40;69.20
67598;DHT22;62026;39.230;9.122;2023-04-03T03:48:33;12.40;69.30
67598;DHT22;62026;39.230;9.122;2023-04-03T03:51:00;12.40;69.30
67598;DHT22;62026;39.230;9.122;2023-04-03T03:53:30;12.30;69.70
67598;DHT22;62026;39.230;9.122;2023-04-03T03:56:01;12.40;69.70
67598;DHT22;62026;39.230;9.122;2023-04-03T03:58:29;12.40;69.70
67598;DHT22;62026;39.230;9.122;2023-04-03T04:00:55;12.40;69.70
67598;DHT22;62026;39.230;9.122;2023-04-03T04:03:21;12.40;69.80
67598;DHT22;62026;39.230;9.122;2023-04-03T04:05:48;12.30;69.90
67598;DHT22;62026;39.230;9.122;2023-04-03T04:08:15;12.30;70.10
67598;DHT22;62026;39.230;9.122;2023-04-03T04:10:42;12.30;70.10
67598;DHT22;62026;39.230;9.122;2023-04-03T04:13:08;12.20;70.40
67598;DHT22;62026;39.230;9.122;2023-04-03T04:15:35;12.20;70.30
67598;DHT22;62026;39.230;9.122;2023-04-03T04:18:01;12.10;70.50
67598;DHT22;62026;39.230;9.122;2023-04-03T04:20:27;12.10;70.80
67598;DHT22;62026;39.230;9.122;2023-04-03T04:22:53;12.10;70.80
67598;DHT22;62026;39.230;9.122;2023-04-03T04:25:21;12.00;71.00
67598;DHT22;62026;39.230;9.122;2023-04-03T04:27:47;12.00;71.00
67598;DHT22;62026;39.230;9.122;2023-04-03T04:30:14;12.00;71.30
67598;DHT22;62026;39.230;9.122;2023-04-03T04:32:41;11.90;71.50
67598;DHT22;62026;39.230;9.122;2023-04-03T04:35:07;11.90;71.70
67598;DHT22;62026;39.230;9.122;2023-04-03T04:37:38;11.90;71.70
67598;DHT22;62026;39.230;9.122;2023-04-03T04:40:05;11.90;71.90
67598;DHT22;62026;39.230;9.122;2023-04-03T04:42:32;11.90;71.90
67598;DHT22;62026;39.230;9.122;2023-04-03T04:44:58;11.90;71.80
67598;DHT22;62026;39.230;9.122;2023-04-03T04:47:24;11.80;72.00
67598;DHT22;62026;39.230;9.122;2023-04-03T04:49:50;11.90;72.00
67598;DHT22;62026;39.230;9.122;2023-04-03T04:52:17;11.90;72.00
67598;DHT22;62026;39.230;9.122;2023-04-03T04:54:43;11.90;72.10
67598;DHT22;62026;39.230;9.122;2023-04-03T04:57:09;11.90;72.00
67598;DHT22;62026;39.230;9.122;2023-04-03T04:59:36;11.90;72.10
67598;DHT22;62026;39.230;9.122;2023-04-03T05:02:03;11.90;72.10
67598;DHT22;62026;39.230;9.122;2023-04-03T05:04:30;11.90;72.30
67598;DHT22;62026;39.230;9.122;2023-04-03T05:07:03;11.90;72.30
67598;DHT22;62026;39.230;9.122;2023-04-03T05:09:33;11.90;72.30
67598;DHT22;62026;39.230;9.122;2023-04-03T05:11:59;11.90;72.40
67598;DHT22;62026;39.230;9.122;2023-04-03T05:14:29;11.90;72.50
67598;DHT22;62026;39.230;9.122;2023-04-03T05:17:00;11.90;72.30
67598;DHT22;62026;39.230;9.122;2023-04-03T05:19:29;11.90;72.30
67598;DHT22;62026;39.230;9.122;2023-04-03T05:21:57;11.90;72.30
67598;DHT22;62026;39.230;9.122;2023-04-03T05:24:23;11.90;72.30
67598;DHT22;62026;39.230;9.122;2023-04-03T05:26:49;11.90;72.40
67598;DHT22;62026;39.230;9.122;2023-04-03T05:29:15;11.90;72.30
67598;DHT22;62026;39.230;9.122;2023-04-03T05:31:41;11.90;72.40
67598;DHT22;62026;39.230;9.122;2023-04-03T05:34:09;11.90;72.30
67598;DHT22;62026;39.230;9.122;2023-04-03T05:36:38;11.90;72.30
67598;DHT22;62026;39.230;9.122;2023-04-03T05:39:07;11.90;72.40
67598;DHT22;62026;39.230;9.122;2023-04-03T05:41:36;11.90;72.30
67598;DHT22;62026;39.230;9.122;2023-04-03T05:44:02;11.90;72.30
67598;DHT22;62026;39.230;9.122;2023-04-03T05:46:29;11.90;72.30
67598;DHT22;62026;39.230;9.122;2023-04-03T05:48:57;11.90;72.30
67598;DHT22;62026;39.230;9.122;2023-04-03T05:51:34;11.90;72.40
67598;DHT22;62026;39.230;9.122;2023-04-03T05:54:25;11.90;72.20
67598;DHT22;62026;39.230;9.122;2023-04-03T05:56:57;11.90;72.50
67598;DHT22;62026;39.230;9.122;2023-04-03T05:59:25;12.00;72.50
67598;DHT22;62026;39.230;9.122;2023-04-03T06:01:53;11.90;72.50
67598;DHT22;62026;39.230;9.122;2023-04-03T06:04:19;12.00;72.60
67598;DHT22;62026;39.230;9.122;2023-04-03T06:06:50;11.90;72.80
67598;DHT22;62026;39.230;9.122;2023-04-03T06:09:18;11.90;72.80
67598;DHT22;62026;39.230;9.122;2023-04-03T06:11:45;11.90;72.90
67598;DHT22;62026;39.230;9.122;2023-04-03T06:14:11;12.00;72.90
67598;DHT22;62026;39.230;9.122;2023-04-03T06:16:38;12.00;72.90
67598;DHT22;62026;39.230;9.122;2023-04-03T06:19:10;12.00;72.90
67598;DHT22;62026;39.230;9.122;2023-04-03T06:21:41;12.10;72.90
67598;DHT22;62026;39.230;9.122;2023-04-03T06:24:09;12.10;72.90
67598;DHT22;62026;39.230;9.122;2023-04-03T06:26:37;12.20;72.90
67598;DHT22;62026;39.230;9.122;2023-04-03T06:29:04;12.20;72.90
67598;DHT22;62026;39.230;9.122;2023-04-03T06:31:30;12.20;73.10
67598;DHT22;62026;39.230;9.122;2023-04-03T06:33:56;12.30;73.10
67598;DHT22;62026;39.230;9.122;2023-04-03T06:36:22;12.30;73.00
67598;DHT22;62026;39.230;9.122;2023-04-03T06:38:48;12.30;72.90
67598;DHT22;62026;39.230;9.122;2023-04-03T06:41:15;12.40;73.00
67598;DHT22;62026;39.230;9.122;2023-04-03T06:43:43;12.40;73.00
67598;DHT22;62026;39.230;9.122;2023-04-03T06:46:20;12.40;73.10
67598;DHT22;62026;39.230;9.122;2023-04-03T06:48:48;12.50;73.10
67598;DHT22;62026;39.230;9.122;2023-04-03T06:51:27;12.50;73.10
67598;DHT22;62026;39.230;9.122;2023-04-03T06:53:58;12.70;72.90
67598;DHT22;62026;39.230;9.122;2023-04-03T06:56:26;12.90;72.50
67598;DHT22;62026;39.230;9.122;2023-04-03T06:58:54;13.10;72.10
67598;DHT22;62026;39.230;9.122;2023-04-03T07:01:27;13.20;71.80
67598;DHT22;62026;39.230;9.122;2023-04-03T07:03:54;13.30;71.60
67598;DHT22;62026;39.230;9.122;2023-04-03T07:06:21;13.50;71.20
67598;DHT22;62026;39.230;9.122;2023-04-03T07:08:47;13.60;71.10
67598;DHT22;62026;39.230;9.122;2023-04-03T07:11:15;13.80;70.50
67598;DHT22;62026;39.230;9.122;2023-04-03T07:13:41;13.90;70.30
67598;DHT22;62026;39.230;9.122;2023-04-03T07:16:08;13.90;70.20
67598;DHT22;62026;39.230;9.122;2023-04-03T07:18:35;14.00;70.10
67598;DHT22;62026;39.230;9.122;2023-04-03T07:21:02;14.10;69.90
67598;DHT22;62026;39.230;9.122;2023-04-03T07:23:29;14.20;69.60
67598;DHT22;62026;39.230;9.122;2023-04-03T07:25:55;14.40;69.20
67598;DHT22;62026;39.230;9.122;2023-04-03T07:28:23;14.50;68.80
67598;DHT22;62026;39.230;9.122;2023-04-03T07:30:52;14.60;68.40
67598;DHT22;62026;39.230;9.122;2023-04-03T07:33:34;14.80;68.20
67598;DHT22;62026;39.230;9.122;2023-04-03T07:36:01;15.00;67.80
67598;DHT22;62026;39.230;9.122;2023-04-03T07:38:27;15.20;67.30
67598;DHT22;62026;39.230;9.122;2023-04-03T07:40:54;15.40;67.00
67598;DHT22;62026;39.230;9.122;2023-04-03T07:43:21;15.50;66.70
67598;DHT22;62026;39.230;9.122;2023-04-03T07:45:48;15.60;66.90
67598;DHT22;62026;39.230;9.122;2023-04-03T07:48:21;15.60;66.80
67598;DHT22;62026;39.230;9.122;2023-04-03T07:50:48;15.60;66.00
67598;DHT22;62026;39.230;9.122;2023-04-03T07:53:15;15.80;65.30
67598;DHT22;62026;39.230;9.122;2023-04-03T07:55:42;15.90;65.00
67598;DHT22;62026;39.230;9.122;2023-04-03T07:58:12;16.10;64.60
67598;DHT22;62026;39.230;9.122;2023-04-03T08:00:40;16.10;64.30
67598;DHT22;62026;39.230;9.122;2023-04-03T08:03:08;16.10;64.20
67598;DHT22;62026;39.230;9.122;2023-04-03T08:05:38;16.20;64.10
67598;DHT22;62026;39.230;9.122;2023-04-03T08:08:06;16.30;63.80
67598;DHT22;62026;39.230;9.122;2023-04-03T08:10:33;16.50;63.50
67598;DHT22;62026;39.230;9.122;2023-04-03T08:13:00;16.70;62.60
67598;DHT22;62026;39.230;9.122;2023-04-03T08:15:27;17.00;62.00
67598;DHT22;62026;39.230;9.122;2023-04-03T08:17:53;17.20;61.00
67598;DHT22;62026;39.230;9.122;2023-04-03T08:20:19;17.40;60.60
67598;DHT22;62026;39.230;9.122;2023-04-03T08:22:46;17.40;59.90
67598;DHT22;62026;39.230;9.122;2023-04-03T08:25:12;17.50;58.70
67598;DHT22;62026;39.230;9.122;2023-04-03T08:27:38;17.70;58.30
67598;DHT22;62026;39.230;9.122;2023-04-03T08:30:05;17.90;57.90
67598;DHT22;62026;39.230;9.122;2023-04-03T08:32:33;18.00;57.60
67598;DHT22;62026;39.230;9.122;2023-04-03T08:35:02;18.00;57.60
67598;DHT22;62026;39.230;9.122;2023-04-03T08:37:29;18.00;57.60
67598;DHT22;62026;39.230;9.122;2023-04-03T08:39:55;18.00;57.30
67598;DHT22;62026;39.230;9.122;2023-04-03T08:45:48;18.10;56.40
67598;DHT22;62026;39.230;9.122;2023-04-03T08:48:19;18.50;55.30
67598;DHT22;62026;39.230;9.122;2023-04-03T08:50:54;18.70;54.60
67598;DHT22;62026;39.230;9.122;2023-04-03T08:53:29;18.90;53.90
67598;DHT22;62026;39.230;9.122;2023-04-03T08:56:04;19.00;53.20
67598;DHT22;62026;39.230;9.122;2023-04-03T08:58:55;19.10;52.60
67598;DHT22;62026;39.230;9.122;2023-04-03T09:01:36;19.20;52.60
67598;DHT22;62026;39.230;9.122;2023-04-03T09:04:11;19.20;51.70
67598;DHT22;62026;39.230;9.122;2023-04-03T09:06:39;19.30;51.50
67598;DHT22;62026;39.230;9.122;2023-04-03T09:09:35;19.30;51.10
67598;DHT22;62026;39.230;9.122;2023-04-03T09:12:19;19.40;50.90
67598;DHT22;62026;39.230;9.122;2023-04-03T09:21:13;19.90;50.80
67598;DHT22;62026;39.230;9.122;2023-04-03T09:23:54;20.20;49.70
67598;DHT22;62026;39.230;9.122;2023-04-03T09:26:30;20.40;48.60
67598;DHT22;62026;39.230;9.122;2023-04-03T09:29:06;20.60;48.20
67598;DHT22;62026;39.230;9.122;2023-04-03T09:31:38;20.60;48.50
67598;DHT22;62026;39.230;9.122;2023-04-03T09:34:21;20.50;47.80
67598;DHT22;62026;39.230;9.122;2023-04-03T09:36:54;20.60;47.90
67598;DHT22;62026;39.230;9.122;2023-04-03T09:39:25;20.80;46.80
67598;DHT22;62026;39.230;9.122;2023-04-03T09:42:01;20.80;47.10
67598;DHT22;62026;39.230;9.122;2023-04-03T09:44:38;20.80;46.70
67598;DHT22;62026;39.230;9.122;2023-04-03T09:47:29;21.00;46.30
67598;DHT22;62026;39.230;9.122;2023-04-03T09:52:48;21.30;45.50
67598;DHT22;62026;39.230;9.122;2023-04-03T09:55:19;21.20;45.30
67598;DHT22;62026;39.230;9.122;2023-04-03T09:57:53;21.30;45.30
67598;DHT22;62026;39.230;9.122;2023-04-03T10:00:36;21.30;45.60
67598;DHT22;62026;39.230;9.122;2023-04-03T10:03:04;21.40;45.30
67598;DHT22;62026;39.230;9.122;2023-04-03T10:10:42;21.60;44.60
67598;DHT22;62026;39.230;9.122;2023-04-03T10:13:20;21.50;44.50
67598;DHT22;62026;39.230;9.122;2023-04-03T10:21:48;21.80;44.00
67598;DHT22;62026;39.230;9.122;2023-04-03T10:24:28;21.60;44.50
67598;DHT22;62026;39.230;9.122;2023-04-03T10:27:49;21.60;44.50
67598;DHT22;62026;39.230;9.122;2023-04-03T10:38:47;21.00;45.00
67598;DHT22;62026;39.230;9.122;2023-04-03T10:41:32;20.80;45.50
67598;DHT22;62026;39.230;9.122;2023-04-03T10:47:27;20.60;45.70
67598;DHT22;62026;39.230;9.122;2023-04-03T10:58:58;20.40;46.10
67598;DHT22;62026;39.230;9.122;2023-04-03T11:02:00;20.10;45.10
67598;DHT22;62026;39.230;9.122;2023-04-03T11:04:37;20.00;45.80
67598;DHT22;62026;39.230;9.122;2023-04-03T11:07:13;19.90;46.60
67598;DHT22;62026;39.230;9.122;2023-04-03T11:09:46;20.00;47.00
67598;DHT22;62026;39.230;9.122;2023-04-03T11:14:56;19.90;47.20
67598;DHT22;62026;39.230;9.122;2023-04-03T11:17:33;19.70;46.30
67598;DHT22;62026;39.230;9.122;2023-04-03T11:20:16;19.60;47.40
67598;DHT22;62026;39.230;9.122;2023-04-03T11:22:53;19.60;47.70
67598;DHT22;62026;39.230;9.122;2023-04-03T11:25:25;19.50;47.40
67598;DHT22;62026;39.230;9.122;2023-04-03T11:27:59;19.50;47.90
67598;DHT22;62026;39.230;9.122;2023-04-03T11:30:56;19.60;48.20
67598;DHT22;62026;39.230;9.122;2023-04-03T11:33:44;19.60;47.40
67598;DHT22;62026;39.230;9.122;2023-04-03T11:36:58;19.50;47.40
67598;DHT22;62026;39.230;9.122;2023-04-03T11:39:30;19.40;47.70
67598;DHT22;62026;39.230;9.122;2023-04-03T11:44:42;19.30;47.70
67598;DHT22;62026;39.230;9.122;2023-04-03T11:47:10;19.30;47.30
67598;DHT22;62026;39.230;9.122;2023-04-03T11:50:30;19.20;47.50
67598;DHT22;62026;39.230;9.122;2023-04-03T12:16:41;19.30;45.20
67598;DHT22;62026;39.230;9.122;2023-04-03T12:19:33;19.30;45.20
67598;DHT22;62026;39.230;9.122;2023-04-03T12:24:32;19.40;44.80
67598;DHT22;62026;39.230;9.122;2023-04-03T12:41:04;19.30;49.20
67598;DHT22;62026;39.230;9.122;2023-04-03T12:46:52;19.40;49.20
67598;DHT22;62026;39.230;9.122;2023-04-03T12:49:40;19.40;49.00
67598;DHT22;62026;39.230;9.122;2023-04-03T12:52:28;19.30;49.70
67598;DHT22;62026;39.230;9.122;2023-04-03T12:55:00;19.30;49.90
67598;DHT22;62026;39.230;9.122;2023-04-03T12:57:30;19.20;49.90
67598;DHT22;62026;39.230;9.122;2023-04-03T12:59:56;19.20;49.30
67598;DHT22;62026;39.230;9.122;2023-04-03T13:02:31;19.30;49.50
67598;DHT22;62026;39.230;9.122;2023-04-03T13:05:09;19.30;49.40
67598;DHT22;62026;39.230;9.122;2023-04-03T13:07:43;19.40;49.50
67598;DHT22;62026;39.230;9.122;2023-04-03T13:10:17;19.30;49.10
67598;DHT22;62026;39.230;9.122;2023-04-03T13:12:51;19.30;49.30
67598;DHT22;62026;39.230;9.122;2023-04-03T13:15:24;19.20;49.10
67598;DHT22;62026;39.230;9.122;2023-04-03T13:17:54;19.20;49.00
67598;DHT22;62026;39.230;9.122;2023-04-03T13:23:07;19.20;49.20
67598;DHT22;62026;39.230;9.122;2023-04-03T13:25:41;19.10;48.20
67598;DHT22;62026;39.230;9.122;2023-04-03T13:28:15;19.20;47.70
67598;DHT22;62026;39.230;9.122;2023-04-03T13:31:22;19.20;48.20
67598;DHT22;62026;39.230;9.122;2023-04-03T13:41:48;19.20;50.70
67598;DHT22;62026;39.230;9.122;2023-04-03T13:46:58;19.10;49.50
67598;DHT22;62026;39.230;9.122;2023-04-03T13:50:03;19.20;49.50
67598;DHT22;62026;39.230;9.122;2023-04-03T13:52:50;19.30;48.40
67598;DHT22;62026;39.230;9.122;2023-04-03T13:55:30;19.20;48.80
67598;DHT22;62026;39.230;9.122;2023-04-03T13:58:03;19.10;48.90
67598;DHT22;62026;39.230;9.122;2023-04-03T14:03:55;19.00;49.00
67598;DHT22;62026;39.230;9.122;2023-04-03T14:06:24;19.00;49.20
67598;DHT22;62026;39.230;9.122;2023-04-03T14:08:51;18.90;49.50
67598;DHT22;62026;39.230;9.122;2023-04-03T14:11:21;18.90;49.80
67598;DHT22;62026;39.230;9.122;2023-04-03T14:13:50;18.90;50.20
67598;DHT22;62026;39.230;9.122;2023-04-03T14:16:22;18.90;50.80
67598;DHT22;62026;39.230;9.122;2023-04-03T14:18:53;18.80;51.80
67598;DHT22;62026;39.230;9.122;2023-04-03T14:21:20;18.70;52.20
67598;DHT22;62026;39.230;9.122;2023-04-03T14:23:47;18.70;52.60
67598;DHT22;62026;39.230;9.122;2023-04-03T14:26:16;18.70;53.20
67598;DHT22;62026;39.230;9.122;2023-04-03T14:28:47;18.70;53.50
67598;DHT22;62026;39.230;9.122;2023-04-03T14:31:15;18.60;53.90
67598;DHT22;62026;39.230;9.122;2023-04-03T14:33:43;18.70;54.00
67598;DHT22;62026;39.230;9.122;2023-04-03T14:36:15;18.70;53.50
67598;DHT22;62026;39.230;9.122;2023-04-03T14:38:51;18.70;53.20
67598;DHT22;62026;39.230;9.122;2023-04-03T14:41:21;18.50;53.20
67598;DHT22;62026;39.230;9.122;2023-04-03T14:43:49;18.50;53.00
67598;DHT22;62026;39.230;9.122;2023-04-03T14:46:38;18.50;52.80
67598;DHT22;62026;39.230;9.122;2023-04-03T14:49:18;18.40;52.10
67598;DHT22;62026;39.230;9.122;2023-04-03T14:51:46;18.40;51.80
67598;DHT22;62026;39.230;9.122;2023-04-03T14:54:15;18.40;51.70
67598;DHT22;62026;39.230;9.122;2023-04-03T14:56:45;18.30;52.10
67598;DHT22;62026;39.230;9.122;2023-04-03T14:59:13;18.40;52.30
67598;DHT22;62026;39.230;9.122;2023-04-03T15:01:40;18.40;52.60
67598;DHT22;62026;39.230;9.122;2023-04-03T15:04:13;18.30;52.60
67598;DHT22;62026;39.230;9.122;2023-04-03T15:06:41;18.20;52.50
67598;DHT22;62026;39.230;9.122;2023-04-03T15:09:20;18.00;52.40
67598;DHT22;62026;39.230;9.122;2023-04-03T15:11:53;17.30;53.10
67598;DHT22;62026;39.230;9.122;2023-04-03T15:14:21;17.00;52.90
67598;DHT22;62026;39.230;9.122;2023-04-03T15:16:47;17.00;53.20
67598;DHT22;62026;39.230;9.122;2023-04-03T15:19:14;17.00;52.50
67598;DHT22;62026;39.230;9.122;2023-04-03T15:21:40;16.80;52.20
67598;DHT22;62026;39.230;9.122;2023-04-03T15:24:06;16.60;53.20
67598;DHT22;62026;39.230;9.122;2023-04-03T15:26:32;16.70;53.00
67598;DHT22;62026;39.230;9.122;2023-04-03T15:28:59;16.70;53.10
67598;DHT22;62026;39.230;9.122;2023-04-03T15:31:25;16.60;54.70
67598;DHT22;62026;39.230;9.122;2023-04-03T15:33:51;16.60;53.80
67598;DHT22;62026;39.230;9.122;2023-04-03T15:36:17;16.50;54.00
67598;DHT22;62026;39.230;9.122;2023-04-03T15:38:43;16.40;54.20
67598;DHT22;62026;39.230;9.122;2023-04-03T15:41:09;16.40;55.60
67598;DHT22;62026;39.230;9.122;2023-04-03T15:43:35;16.70;55.50
67598;DHT22;62026;39.230;9.122;2023-04-03T15:46:01;16.70;54.30
67598;DHT22;62026;39.230;9.122;2023-04-03T15:48:29;16.70;54.20
67598;DHT22;62026;39.230;9.122;2023-04-03T15:50:55;16.60;54.60
67598;DHT22;62026;39.230;9.122;2023-04-03T15:53:22;16.60;54.80
67598;DHT22;62026;39.230;9.122;2023-04-03T15:55:48;16.40;55.20
67598;DHT22;62026;39.230;9.122;2023-04-03T15:58:13;16.40;55.80
67598;DHT22;62026;39.230;9.122;2023-04-03T16:00:40;16.50;55.90
67598;DHT22;62026;39.230;9.122;2023-04-03T16:03:15;16.70;55.70
67598;DHT22;62026;39.230;9.122;2023-04-03T16:05:42;16.70;55.60
67598;DHT22;62026;39.230;9.122;2023-04-03T16:08:09;16.90;55.30
67598;DHT22;62026;39.230;9.122;2023-04-03T16:10:36;17.00;55.10
67598;DHT22;62026;39.230;9.122;2023-04-03T16:13:03;17.00;54.70
67598;DHT22;62026;39.230;9.122;2023-04-03T16:15:31;17.00;54.70
67598;DHT22;62026;39.230;9.122;2023-04-03T16:17:58;17.10;54.30
67598;DHT22;62026;39.230;9.122;2023-04-03T16:20:26;17.00;53.50
67598;DHT22;62026;39.230;9.122;2023-04-03T16:22:53;17.10;53.30
67598;DHT22;62026;39.230;9.122;2023-04-03T16:25:19;17.10;53.20
67598;DHT22;62026;39.230;9.122;2023-04-03T16:27:46;17.10;53.30
67598;DHT22;62026;39.230;9.122;2023-04-03T16:30:12;17.20;53.30
67598;DHT22;62026;39.230;9.122;2023-04-03T16:32:39;17.20;53.30
67598;DHT22;62026;39.230;9.122;2023-04-03T16:35:06;17.20;53.30
67598;DHT22;62026;39.230;9.122;2023-04-03T16:37:32;17.20;53.40
67598;DHT22;62026;39.230;9.122;2023-04-03T16:39:58;17.20;53.10
67598;DHT22;62026;39.230;9.122;2023-04-03T16:42:25;17.20;53.40
67598;DHT22;62026;39.230;9.122;2023-04-03T16:44:51;17.30;53.50
67598;DHT22;62026;39.230;9.122;2023-04-03T16:47:17;17.30;53.70
67598;DHT22;62026;39.230;9.122;2023-04-03T16:49:46;17.30;53.60
67598;DHT22;62026;39.230;9.122;2023-04-03T16:52:12;17.30;54.20
67598;DHT22;62026;39.230;9.122;2023-04-03T16:54:39;17.30;54.30
67598;DHT22;62026;39.230;9.122;2023-04-03T16:57:05;17.30;54.60
67598;DHT22;62026;39.230;9.122;2023-04-03T16:59:31;17.30;55.20
67598;DHT22;62026;39.230;9.122;2023-04-03T17:01:57;16.90;57.80
67598;DHT22;62026;39.230;9.122;2023-04-03T17:04:23;16.70;58.90
67598;DHT22;62026;39.230;9.122;2023-04-03T17:06:49;16.30;60.10
67598;DHT22;62026;39.230;9.122;2023-04-03T17:09:17;16.10;61.30
67598;DHT22;62026;39.230;9.122;2023-04-03T17:11:43;16.00;61.20
67598;DHT22;62026;39.230;9.122;2023-04-03T17:14:09;15.90;61.80
67598;DHT22;62026;39.230;9.122;2023-04-03T17:16:37;15.80;62.10
67598;DHT22;62026;39.230;9.122;2023-04-03T17:19:04;15.80;62.20
67598;DHT22;62026;39.230;9.122;2023-04-03T17:21:31;15.90;61.90
67598;DHT22;62026;39.230;9.122;2023-04-03T17:24:02;16.00;61.80
67598;DHT22;62026;39.230;9.122;2023-04-03T17:26:32;15.90;62.20
67598;DHT22;62026;39.230;9.122;2023-04-03T17:28:58;15.90;62.20
67598;DHT22;62026;39.230;9.122;2023-04-03T17:31:25;15.90;62.30
67598;DHT22;62026;39.230;9.122;2023-04-03T17:33:50;15.80;63.10
67598;DHT22;62026;39.230;9.122;2023-04-03T17:36:16;15.80;63.80
67598;DHT22;62026;39.230;9.122;2023-04-03T17:38:43;15.70;64.40
67598;DHT22;62026;39.230;9.122;2023-04-03T17:41:09;15.60;65.40
67598;DHT22;62026;39.230;9.122;2023-04-03T17:43:36;15.50;65.80
67598;DHT22;62026;39.230;9.122;2023-04-03T17:46:05;15.50;65.80
67598;DHT22;62026;39.230;9.122;2023-04-03T17:48:34;15.60;64.80